createdAt,value
2019-04-11T00:03:25.188Z,6.50
2019-04-11T00:07:30.125Z,6.33
2019-04-11T00:11:35.718Z,6.27
2019-04-11T00:15:40.462Z,6.30
2019-04-11T00:19:45.399Z,6.13
2019-04-11T00:23:50.286Z,6.07
2019-04-11T00:27:55.130Z,6.47
2019-04-11T00:31:59.291Z,6.30
2019-04-11T00:36:04.211Z,6.47
2019-04-11T00:40:08.982Z,6.07
2019-04-11T00:44:14.673Z,6.50
2019-04-11T00:48:19.695Z,6.03
2019-04-11T00:52:24.055Z,6.53
2019-04-11T00:56:28.450Z,6.40
2019-04-11T01:00:33.345Z,5.80
2019-04-11T01:04:39.026Z,6.57
2019-04-11T01:08:44.008Z,6.30
2019-04-11T01:12:49.758Z,5.73
2019-04-11T01:16:57.045Z,6.00
2019-04-11T01:21:02.060Z,5.73
2019-04-11T01:25:06.866Z,6.43
2019-04-11T01:29:11.346Z,6.27
2019-04-11T01:33:15.785Z,6.87
2019-04-11T01:37:19.939Z,6.30
2019-04-11T01:41:24.652Z,6.70
2019-04-11T01:45:29.613Z,6.93
2019-04-11T01:49:34.440Z,6.40
2019-04-11T01:53:39.478Z,6.30
2019-04-11T01:57:44.779Z,6.00
2019-04-11T02:02:13.973Z,7.07
2019-04-11T02:06:18.477Z,6.70
2019-04-11T02:10:22.748Z,6.60
2019-04-11T02:14:27.965Z,6.73
2019-04-11T02:18:32.377Z,6.70
2019-04-11T02:22:54.983Z,6.40
2019-04-11T02:27:16.968Z,6.73
2019-04-11T02:31:22.877Z,6.83
2019-04-11T02:35:28.890Z,6.30
2019-04-11T02:39:35.363Z,7.40
2019-04-11T02:43:44.168Z,6.60
2019-04-11T02:47:48.581Z,7.27
2019-04-11T02:51:55.726Z,6.73
2019-04-11T02:56:00.753Z,6.87
2019-04-11T03:00:08.557Z,6.87
2019-04-11T03:04:12.990Z,6.47
2019-04-11T03:08:19.815Z,6.57
2019-04-11T03:12:24.047Z,6.97
2019-04-11T03:16:42.818Z,6.83
2019-04-11T03:20:44.904Z,7.30
2019-04-11T03:24:42.756Z,7.27
2019-04-11T03:28:50.193Z,7.30
2019-04-11T03:33:53.929Z,6.67
2019-04-11T03:37:23.074Z,6.23
2019-04-11T03:41:23.552Z,6.60
2019-04-11T03:45:33.424Z,7.00
2019-04-11T03:49:29.285Z,6.77
2019-04-11T03:53:29.147Z,6.87
2019-04-11T03:57:31.904Z,7.30
2019-04-11T04:01:37.974Z,6.57
2019-04-11T04:05:44.367Z,6.17
2019-04-11T04:09:49.211Z,6.87
2019-04-11T04:14:24.350Z,6.23
2019-04-11T04:18:43.769Z,6.90
2019-04-11T04:23:07.634Z,7.20
2019-04-11T04:27:13.181Z,6.83
2019-04-11T04:31:18.514Z,6.83
2019-04-11T04:35:24.089Z,6.40
2019-04-11T04:39:29.937Z,6.27
2019-04-11T04:43:36.507Z,6.53
2019-04-11T04:47:47.817Z,6.20
2019-04-11T04:51:47.766Z,6.67
2019-04-11T04:55:53.857Z,6.00
2019-04-11T04:59:59.900Z,6.70
2019-04-11T05:04:04.815Z,5.70
2019-04-11T05:08:10.720Z,6.50
2019-04-11T05:12:16.241Z,6.87
2019-04-11T05:16:20.517Z,6.40
2019-04-11T05:20:24.854Z,6.70
2019-04-11T05:24:29.063Z,6.57
2019-04-11T05:28:33.370Z,6.80
2019-04-11T05:32:37.650Z,6.37
2019-04-11T05:36:42.863Z,6.13
2019-04-11T05:40:48.305Z,7.03
2019-04-11T05:44:52.476Z,6.10
2019-04-11T05:49:14.589Z,6.67
2019-04-11T05:53:20.337Z,7.50
2019-04-11T05:57:33.622Z,7.43
2019-04-11T06:01:39.217Z,6.77
2019-04-11T06:06:12.734Z,6.33
2019-04-11T06:10:22.609Z,6.73
2019-04-11T06:14:51.659Z,7.03
2019-04-11T06:19:30.567Z,7.07
2019-04-11T06:24:09.920Z,6.90
2019-04-11T06:28:22.180Z,7.30
2019-04-11T06:32:54.372Z,6.70
2019-04-11T06:37:11.792Z,6.40
2019-04-11T06:41:35.136Z,6.03
2019-04-11T06:46:02.949Z,6.50
2019-04-11T06:50:39.666Z,6.57
2019-04-11T06:55:10.906Z,6.20
2019-04-11T06:59:21.592Z,6.07
2019-04-11T07:03:30.580Z,6.30
2019-04-11T07:07:36.168Z,6.97
2019-04-11T07:11:52.951Z,6.27
2019-04-11T07:15:57.958Z,6.97
2019-04-11T07:20:36.358Z,5.70
2019-04-11T07:24:59.721Z,7.23
2019-04-11T07:29:23.946Z,6.83
2019-04-11T07:33:46.288Z,6.93
2019-04-11T07:37:53.327Z,6.27
2019-04-11T07:42:15.952Z,6.27
2019-04-11T07:46:42.996Z,6.87
2019-04-11T07:50:48.697Z,6.80
2019-04-11T07:54:53.700Z,6.57
2019-04-11T07:59:00.870Z,6.60
2019-04-11T08:03:10.021Z,6.70
2019-04-11T08:07:33.148Z,6.63
2019-04-11T08:11:47.717Z,6.53
2019-04-11T08:16:10.568Z,6.93
2019-04-11T08:20:33.262Z,6.67
2019-04-11T08:24:43.377Z,6.90
2019-04-11T08:28:59.588Z,7.17
2019-04-11T08:32:55.665Z,7.00
2019-04-11T08:37:17.345Z,7.47
2019-04-11T08:41:35.851Z,7.30
2019-04-11T08:45:46.567Z,7.00
2019-04-11T08:49:54.323Z,6.97
2019-04-11T08:54:17.538Z,6.27
2019-04-11T08:58:59.123Z,7.20
2019-04-11T09:03:17.680Z,7.13
2019-04-11T09:07:25.477Z,6.70
2019-04-11T09:11:41.107Z,6.93
2019-04-11T09:16:03.907Z,6.87
2019-04-11T09:20:27.672Z,6.27
2019-04-11T09:24:46.507Z,6.83
2019-04-11T09:28:53.601Z,6.03
2019-04-11T09:33:09.306Z,6.80
2019-04-11T09:37:33.670Z,5.63
2019-04-11T09:41:57.070Z,6.93
2019-04-11T09:46:14.577Z,6.83
2019-04-11T09:50:34.201Z,7.40
2019-04-11T09:54:52.656Z,6.97
2019-04-11T09:59:00.246Z,6.63
2019-04-11T10:03:19.684Z,6.20
2019-04-11T10:07:33.466Z,6.87
2019-04-11T10:11:59.829Z,6.80
2019-04-11T10:16:32.144Z,5.97
2019-04-11T10:20:37.063Z,5.90
2019-04-11T10:24:54.793Z,6.37
2019-04-11T10:29:12.453Z,6.33
2019-04-11T10:33:37.180Z,6.83
2019-04-11T10:37:42.577Z,6.67
2019-04-11T10:41:50.474Z,6.40
2019-04-11T10:46:02.870Z,6.13
2019-04-11T10:50:21.712Z,6.03
2019-04-11T10:54:26.206Z,6.30
2019-04-11T10:58:37.258Z,6.23
2019-04-11T11:03:06.533Z,5.90
2019-04-11T11:07:13.806Z,6.20
2019-04-11T11:11:28.349Z,6.40
2019-04-11T11:15:45.775Z,6.33
2019-04-11T11:20:16.414Z,6.13
2019-04-11T11:24:30.064Z,6.93
2019-04-11T11:28:38.650Z,5.83
2019-04-11T11:32:45.440Z,6.30
2019-04-11T11:37:11.512Z,6.57
2019-04-11T11:41:38.555Z,6.50
2019-04-11T11:46:17.801Z,5.60
2019-04-11T11:50:23.839Z,5.67
2019-04-11T11:54:33.922Z,5.53
2019-04-11T11:59:09.256Z,5.87
2019-04-11T12:03:40.444Z,5.43
2019-04-11T12:08:15.334Z,5.80
2019-04-11T12:12:23.928Z,5.27
2019-04-11T12:16:52.014Z,5.73
2019-04-11T12:20:59.329Z,6.40
2019-04-11T12:25:22.892Z,5.93
2019-04-11T12:29:48.935Z,5.93
2019-04-11T12:34:10.268Z,6.17
2019-04-11T12:38:24.495Z,5.30
2019-04-11T12:42:30.621Z,5.43
2019-04-11T12:46:52.601Z,5.10
2019-04-11T12:51:28.217Z,5.60
2019-04-11T12:56:06.738Z,6.53
2019-04-11T13:00:24.635Z,5.53
2019-04-11T13:04:33.990Z,5.10
2019-04-11T13:08:56.372Z,5.50
2019-04-11T13:13:19.516Z,4.83
2019-04-11T13:17:28.573Z,5.80
2019-04-11T13:21:48.489Z,5.50
2019-04-11T13:26:12.167Z,5.17
2019-04-11T13:30:47.679Z,5.27
2019-04-11T13:34:52.964Z,4.90
2019-04-11T13:38:57.339Z,4.40
2019-04-11T13:43:38.977Z,4.90
2019-04-11T13:48:00.859Z,4.90
2019-04-11T13:52:30.359Z,4.73
2019-04-11T13:56:47.987Z,4.63
2019-04-11T14:00:53.565Z,4.47
2019-04-11T14:04:57.762Z,4.37
2019-04-11T14:09:13.248Z,4.90
2019-04-11T14:13:17.462Z,4.67
2019-04-11T14:17:25.703Z,4.80
2019-04-11T14:21:29.939Z,4.17
2019-04-11T14:25:51.973Z,4.50
2019-04-11T14:30:05.905Z,4.50
2019-04-11T14:34:32.195Z,4.80
2019-04-11T14:38:45.588Z,4.30
2019-04-11T14:43:04.516Z,4.23
2019-04-11T14:47:30.529Z,4.50
2019-04-11T14:51:58.448Z,4.37
2019-04-11T14:56:05.886Z,3.97
2019-04-11T15:00:36.585Z,4.50
2019-04-11T15:04:49.912Z,4.50
2019-04-11T15:09:19.417Z,4.33
2019-04-11T15:13:26.033Z,5.03
2019-04-11T15:17:32.454Z,4.23
2019-04-11T15:21:56.306Z,4.63
2019-04-11T15:26:22.581Z,4.70
2019-04-11T15:30:27.385Z,4.87
2019-04-11T15:34:59.697Z,4.93
2019-04-11T15:39:29.233Z,5.27
2019-04-11T15:43:58.818Z,4.20
2019-04-11T15:48:23.706Z,4.20
2019-04-11T15:52:28.824Z,4.67
2019-04-11T15:56:43.575Z,4.47
2019-04-11T16:01:02.767Z,4.60
2019-04-11T16:05:25.422Z,4.60
2019-04-11T16:09:29.613Z,5.10
2019-04-11T16:13:46.071Z,5.30
2019-04-11T16:18:18.474Z,4.70
2019-04-11T16:22:42.988Z,4.73
2019-04-11T16:27:14.802Z,5.17
2019-04-11T16:31:19.097Z,6.00
2019-04-11T16:35:38.784Z,5.57
2019-04-11T16:40:02.178Z,5.53
2019-04-11T16:44:09.160Z,5.73
2019-04-11T16:48:13.366Z,6.20
2019-04-11T16:52:17.651Z,6.53
2019-04-11T16:56:22.279Z,6.70
2019-04-11T17:00:26.489Z,5.70
2019-04-11T17:04:30.827Z,6.40
2019-04-11T17:08:56.440Z,7.10
2019-04-11T17:13:00.333Z,6.47
2019-04-11T17:17:14.465Z,6.37
2019-04-11T17:21:10.564Z,6.80
2019-04-11T17:25:17.571Z,6.50
2019-04-11T17:29:24.693Z,7.27
2019-04-11T17:33:28.607Z,7.03
2019-04-11T17:37:33.666Z,7.00
2019-04-11T17:41:41.802Z,7.33
2019-04-11T17:45:46.869Z,7.50
2019-04-11T17:49:50.431Z,7.20
2019-04-11T17:53:55.634Z,7.43
2019-04-11T17:58:00.056Z,7.57
2019-04-11T18:02:10.127Z,7.03
2019-04-11T18:06:16.943Z,6.70
2019-04-11T18:10:18.636Z,5.93
2019-04-11T18:14:22.946Z,6.80
2019-04-11T18:18:27.287Z,7.27
2019-04-11T18:22:31.603Z,7.40
2019-04-11T18:26:35.924Z,7.37
2019-04-11T18:30:40.303Z,7.27
2019-04-11T18:34:44.629Z,7.20
2019-04-11T18:38:48.906Z,7.00
2019-04-11T18:42:54.183Z,7.20
2019-04-11T18:46:58.751Z,7.27
2019-04-11T18:51:03.074Z,5.93
2019-04-11T18:55:08.733Z,7.27
2019-04-11T18:59:13.465Z,7.27
2019-04-11T19:03:17.917Z,6.93
2019-04-11T19:07:27.548Z,6.83
2019-04-11T19:11:29.037Z,6.93
2019-04-11T19:15:33.306Z,7.23
2019-04-11T19:19:37.656Z,6.50
2019-04-11T19:23:41.907Z,6.83
2019-04-11T19:27:50.455Z,6.40
2019-04-11T19:31:52.330Z,6.47
2019-04-11T19:35:56.732Z,7.63
2019-04-11T19:40:00.977Z,7.03
2019-04-11T19:44:05.412Z,6.70
2019-04-11T19:48:09.664Z,6.03
2019-04-11T19:52:14.325Z,6.17
2019-04-11T19:56:49.907Z,6.30
2019-04-11T20:00:54.231Z,6.10
2019-04-11T20:04:58.546Z,6.73
2019-04-11T20:09:02.891Z,6.63
2019-04-11T20:13:07.180Z,6.67
2019-04-11T20:17:11.442Z,6.13
2019-04-11T20:21:15.796Z,6.50
2019-04-11T20:25:19.997Z,6.93
2019-04-11T20:29:24.348Z,6.40
2019-04-11T20:33:33.903Z,6.83
2019-04-11T20:37:39.600Z,7.00
2019-04-11T20:41:40.694Z,6.83
2019-04-11T20:45:45.189Z,7.20
2019-04-11T20:49:49.935Z,6.70
2019-04-11T20:53:54.465Z,6.73
2019-04-11T20:57:58.697Z,6.53
2019-04-11T21:02:03.086Z,6.67
2019-04-11T21:06:07.306Z,6.50
2019-04-11T21:10:11.609Z,5.83
2019-04-11T21:14:15.835Z,6.13
2019-04-11T21:18:20.083Z,6.30
2019-04-11T21:22:24.809Z,6.23
2019-04-11T21:26:29.534Z,6.97
2019-04-11T21:30:33.882Z,6.43
2019-04-11T21:34:38.300Z,6.10
2019-04-11T21:38:42.514Z,6.00
2019-04-11T21:42:46.761Z,6.63
2019-04-11T21:46:51.115Z,6.37
2019-04-11T21:50:55.315Z,6.77
2019-04-11T21:54:59.549Z,5.93
2019-04-11T21:59:03.809Z,5.97
2019-04-11T22:03:08.804Z,6.10
2019-04-11T22:07:13.061Z,6.30
2019-04-11T22:11:17.300Z,6.67
2019-04-11T22:15:21.558Z,6.20
2019-04-11T22:19:25.811Z,5.50
2019-04-11T22:23:30.051Z,6.13
2019-04-11T22:27:34.283Z,5.33
2019-04-11T22:31:38.578Z,6.37
2019-04-11T22:35:42.883Z,5.93
2019-04-11T22:39:47.117Z,5.87
2019-04-11T22:43:51.343Z,5.70
2019-04-11T22:47:55.523Z,5.73
2019-04-11T22:51:59.856Z,5.60
2019-04-11T22:56:04.144Z,5.83
2019-04-11T23:00:08.802Z,5.70
2019-04-11T23:04:16.612Z,5.40
2019-04-11T23:08:19.826Z,5.37
2019-04-11T23:12:24.321Z,5.40
2019-04-11T23:16:28.572Z,5.27
2019-04-11T23:20:33.175Z,5.57
2019-04-11T23:24:37.349Z,5.07
2019-04-11T23:28:45.919Z,5.17
2019-04-11T23:32:50.988Z,4.90
2019-04-11T23:36:53.637Z,5.27
2019-04-11T23:40:57.910Z,6.20
2019-04-11T23:45:02.093Z,5.03
2019-04-11T23:49:06.691Z,5.73
2019-04-11T23:53:11.106Z,5.40
2019-04-11T23:57:15.336Z,5.73
